Details From CYSB - Sudbury
To CYQT - Thunder Bay
Flight Number -
Tags Generated
Created
Modified
Stats Distance 362 nm / 670 km
Max Altitude 0 ft / 0 m
Waypoints 3
Social Downloads 0
Likes 0
Share VATSIM

Download

Looking for another format? Having issues loading an existing format? Contact us
Advertisement - Login to hide

Notes

Generated

Route

CYSB EBKIL CYQT

ID Type Via Altitude Latitude Longitude Leg Dist Tot Dist Heading (true) Name
O CYSB APT - 0 ft / 0 m 46.62917˚ -80.80750˚ - 0 nm - -
EBKIL FIX - 0 ft / 0 m 48.35267˚ -89.03217˚ 349 nm 349 nm 290° / 284° -
O CYQT APT - 0 ft / 0 m 48.37485˚ -89.33798˚ 12 nm 361 nm 276° / 276° -

Altitude Profile

Advertisement - Login to hide

Weather


0- 5 10 15 20 25 30 35+ Temperature / ° C

Clouds and Precipitation
Forecast for 2017-12-16 18:00 UTC. Updated an hour ago

Ground ~20,000 ft ~40,000 ft Winds

CYSB

Details ICAO CYSB (YSB)
Name SUDBURY
Region Canada
Timezone America/Toronto (UTC-5.0)
Stats Elevation 1,141 ft / 348 m (AMSL)
Location 46.626320° -80.798194°
Runways 2
Magnetic Variation 10.305° W

METAR

CYSB 161600Z 34008KT 20SM FEW012 SCT200 M20/M25 A2997 RMK CU2CI1 SLP184

Decode

TAF

TAF CYSB 161338Z 1614/1702 34008KT P6SM SCT020 TEMPO 1614/1702 BKN020 BECMG 1616/1618 01008KT RMK NXT FCST BY 162000Z

Decode

Departure Runways

ID Width Length Bearing (true) Bearing (mag) Surface Threshold Offset Overrun Length
04 200 ft / 61 m 6,574 ft / 2,004 m 28.46° 38.76° Asphalt 0 ft / 0 m 1,000 ft / 305 m
12 150 ft / 46 m 5,009 ft / 1,527 m 106.45° 116.75° Asphalt 0 ft / 0 m 600 ft / 183 m
22 200 ft / 61 m 6,574 ft / 2,004 m 208.47° 218.77° Asphalt 0 ft / 0 m 1,000 ft / 305 m
30 150 ft / 46 m 5,009 ft / 1,527 m 286.47° 296.77° Asphalt 0 ft / 0 m 400 ft / 122 m

CYQT

Details ICAO CYQT (YQT)
Name Thunder Bay
Region Canada
Timezone America/Thunder_Bay (UTC-5.0)
Stats Elevation 653 ft / 199 m (AMSL)
Location 48.372036° -89.325122°
Runways 2
Magnetic Variation 3.734° W

METAR

CYQT 161600Z 28003KT 15SM OVC014 M20/M23 A3012 RMK SC8 SLP223

Decode

TAF

TAF CYQT 161338Z 1614/1702 VRB03KT P6SM FEW015 TEMPO 1614/1615 BKN015 FM161500 06010KT P6SM SCT008 OVC025 TEMPO 1615/1702 4SM -SN BKN008 OVC025 RMK NXT FCST BY 162000Z

Decode

Destination Runways

ID Width Length Bearing (true) Bearing (mag) Surface Threshold Offset Overrun Length
07 200 ft / 61 m 6,206 ft / 1,892 m 70.47° 74.20° Asphalt 0 ft / 0 m 0 ft / 0 m
12 200 ft / 61 m 5,305 ft / 1,617 m 121.57° 125.30° Asphalt 0 ft / 0 m 0 ft / 0 m
25 200 ft / 61 m 6,206 ft / 1,892 m 250.49° 254.22° Asphalt 0 ft / 0 m 0 ft / 0 m
30 200 ft / 61 m 5,305 ft / 1,617 m 301.58° 305.31° Asphalt 0 ft / 0 m 0 ft / 0 m

Approach Navaids

Runway Type Ident Frequency Range Bearing (true) Bearing (mag) Slope Elevation
07 Localiser IQT 109.50 MHz 18 nm / 33 km 70.53° 74.26° - 653 ft / 199 m (AMSL)
07 Glidescope IQT 109.50 MHz 10 nm / 19 km 74.00° 77.73° 3.00° 653 ft / 199 m (AMSL)

Popular Alternatives